Cincinnati, Ohio
Traffic Map
Current Weather Conditions
Cincinnati, Ohio
Broken Clouds
Broken Clouds
16°
Feels Like: 16°
Wind Chill: 16° Ceiling: 4600
Heat Index: 16° Visibility: 10mi
Dew Point: 12° Wind: 3mph
Humidity: 75% Direction: 40° (NE)
Pressure: 30.08in Gusts: 0mph
Raw Report DataKLUK 291353Z 04003KT 10SM SCT028 SCT035 BKN046 16/12 A3008 RMK AO2 SLP183 T01610117
Traffic Incident Summary
Active as of:
Severity:
Category:
InformationThere was an issue retrieving the traffic information for this location. Please try a different location or try again shortly.
Advertisements
Track Severe Weather on mobile